createdAt,value
2018-05-01T00:00:10.955Z,15.02
2018-05-01T00:01:10.915Z,14.98
2018-05-01T00:02:10.865Z,15.07
2018-05-01T00:03:10.820Z,15.09
2018-05-01T00:04:10.776Z,15.03
2018-05-01T00:05:10.731Z,15.13
2018-05-01T00:06:10.686Z,15.19
2018-05-01T00:07:10.641Z,15.28
2018-05-01T00:08:10.597Z,15.29
2018-05-01T00:09:10.556Z,15.31
2018-05-01T00:10:10.507Z,15.35
2018-05-01T00:11:10.462Z,15.41
2018-05-01T00:12:10.417Z,15.46
2018-05-01T00:13:10.374Z,15.49
2018-05-01T00:14:10.328Z,15.50
2018-05-01T00:15:10.284Z,15.53
2018-05-01T00:16:10.239Z,15.57
2018-05-01T00:17:10.195Z,15.65
2018-05-01T00:18:10.149Z,15.65
2018-05-01T00:19:10.105Z,15.59
2018-05-01T00:20:10.061Z,15.54
2018-05-01T00:21:10.016Z,15.69
2018-05-01T00:22:09.970Z,15.69
2018-05-01T00:23:09.925Z,15.69
2018-05-01T00:24:09.881Z,15.67
2018-05-01T00:25:09.837Z,15.68
2018-05-01T00:26:09.791Z,15.56
2018-05-01T00:27:09.750Z,15.57
2018-05-01T00:28:09.704Z,15.53
2018-05-01T00:29:09.666Z,15.43
2018-05-01T00:30:09.612Z,15.47
2018-05-01T00:31:09.567Z,15.39
2018-05-01T00:32:09.523Z,15.36
2018-05-01T00:33:09.532Z,15.27
2018-05-01T00:34:09.433Z,15.16
2018-05-01T00:35:09.388Z,15.07
2018-05-01T00:36:09.345Z,15.03
2018-05-01T00:37:09.298Z,15.02
2018-05-01T00:38:09.253Z,14.98
2018-05-01T00:39:09.213Z,14.94
2018-05-01T00:40:09.164Z,14.91
2018-05-01T00:41:09.117Z,14.81
2018-05-01T00:42:09.072Z,14.80
2018-05-01T00:43:09.027Z,14.70
2018-05-01T00:44:08.982Z,14.70
2018-05-01T00:45:08.943Z,14.64
2018-05-01T00:46:08.890Z,14.58
2018-05-01T00:47:08.846Z,14.57
2018-05-01T00:48:08.800Z,14.52
2018-05-01T00:49:08.755Z,14.58
2018-05-01T00:50:08.709Z,14.57
2018-05-01T00:51:08.663Z,14.51
2018-05-01T00:52:08.619Z,14.52
2018-05-01T00:53:08.573Z,14.52
2018-05-01T00:54:08.527Z,14.46
2018-05-01T00:55:08.482Z,14.52
2018-05-01T00:56:08.439Z,14.58
2018-05-01T00:57:08.391Z,14.51
2018-05-01T00:58:08.346Z,14.52
2018-05-01T00:59:08.300Z,14.50
2018-05-01T01:00:08.255Z,14.50
2018-05-01T01:01:08.222Z,14.51
2018-05-01T01:02:08.164Z,14.51
2018-05-01T01:03:08.118Z,14.54
2018-05-01T01:04:08.073Z,14.54
2018-05-01T01:05:08.028Z,14.46
2018-05-01T01:06:07.990Z,14.51
2018-05-01T01:07:07.936Z,14.60
2018-05-01T01:08:07.891Z,14.60
2018-05-01T01:09:07.846Z,14.64
2018-05-01T01:10:07.800Z,14.68
2018-05-01T01:11:07.755Z,14.68
2018-05-01T01:12:07.711Z,14.68
2018-05-01T01:13:07.665Z,14.72
2018-05-01T01:14:07.619Z,14.80
2018-05-01T01:15:07.573Z,14.81
2018-05-01T01:16:07.529Z,14.83
2018-05-01T01:17:07.483Z,14.81
2018-05-01T01:18:07.438Z,14.83
2018-05-01T01:19:07.399Z,14.84
2018-05-01T01:20:07.349Z,14.81
2018-05-01T01:21:07.303Z,14.94
2018-05-01T01:22:07.256Z,14.98
2018-05-01T01:23:07.211Z,14.94
2018-05-01T01:24:07.166Z,14.88
2018-05-01T01:25:07.124Z,14.86
2018-05-01T01:26:07.075Z,14.83
2018-05-01T01:27:07.030Z,14.80
2018-05-01T01:28:06.985Z,14.86
2018-05-01T01:29:06.940Z,14.84
2018-05-01T01:30:06.894Z,14.84
2018-05-01T01:31:06.849Z,14.81
2018-05-01T01:32:06.804Z,14.88
2018-05-01T01:33:06.759Z,14.83
2018-05-01T01:34:06.713Z,14.86
2018-05-01T01:35:06.668Z,14.88
2018-05-01T01:36:06.623Z,14.89
2018-05-01T01:37:06.578Z,14.86
2018-05-01T01:38:06.532Z,14.89
2018-05-01T01:39:06.489Z,14.96
2018-05-01T01:40:06.442Z,14.83
2018-05-01T01:41:06.397Z,14.84
2018-05-01T01:42:06.352Z,14.99
2018-05-01T01:43:06.307Z,14.99
2018-05-01T01:44:06.261Z,14.89
2018-05-01T01:45:06.217Z,14.96
2018-05-01T01:46:06.170Z,14.96
2018-05-01T01:47:06.125Z,15.01
2018-05-01T01:48:06.081Z,14.96
2018-05-01T01:49:06.039Z,14.96
2018-05-01T01:50:05.990Z,14.98
2018-05-01T01:51:05.945Z,14.95
2018-05-01T01:52:05.900Z,14.94
2018-05-01T01:53:05.855Z,15.09
2018-05-01T01:54:05.809Z,15.03
2018-05-01T01:55:05.764Z,15.10
2018-05-01T01:56:05.719Z,15.09
2018-05-01T01:57:05.674Z,15.13
2018-05-01T01:58:05.628Z,15.07
2018-05-01T01:59:05.633Z,15.03
2018-05-01T02:00:05.538Z,15.07
2018-05-01T02:01:05.493Z,15.01
2018-05-01T02:02:05.452Z,15.02
2018-05-01T02:03:05.434Z,15.09
2018-05-01T02:04:05.357Z,15.10
2018-05-01T02:05:05.314Z,15.11
2018-05-01T02:06:05.267Z,15.03
2018-05-01T02:07:05.221Z,15.03
2018-05-01T02:08:05.176Z,15.09
2018-05-01T02:09:05.132Z,15.09
2018-05-01T02:10:05.086Z,15.02
2018-05-01T02:11:05.041Z,15.11
2018-05-01T02:12:05.001Z,15.09
2018-05-01T02:13:04.951Z,15.03
2018-05-01T02:14:04.905Z,15.14
2018-05-01T02:15:04.860Z,15.27
2018-05-01T02:16:04.823Z,15.14
2018-05-01T02:17:04.779Z,15.10
2018-05-01T02:18:04.726Z,15.03
2018-05-01T02:19:04.680Z,15.10
2018-05-01T02:20:04.634Z,15.06
2018-05-01T02:21:04.590Z,15.02
2018-05-01T02:22:04.544Z,15.06
2018-05-01T02:23:04.498Z,15.01
2018-05-01T02:24:04.456Z,15.09
2018-05-01T02:25:04.415Z,14.98
2018-05-01T02:26:04.363Z,14.98
2018-05-01T02:27:04.318Z,14.88
2018-05-01T02:28:04.273Z,14.84
2018-05-01T02:29:04.228Z,14.89
2018-05-01T02:30:04.186Z,14.84
2018-05-01T02:31:04.137Z,14.73
2018-05-01T02:32:04.092Z,14.65
2018-05-01T02:33:04.047Z,14.65
2018-05-01T02:34:04.004Z,14.57
2018-05-01T02:35:03.956Z,14.61
2018-05-01T02:36:03.912Z,14.55
2018-05-01T02:37:03.871Z,14.55
2018-05-01T02:38:03.820Z,14.47
2018-05-01T02:39:03.774Z,14.52
2018-05-01T02:40:03.730Z,14.50
2018-05-01T02:41:03.684Z,14.55
2018-05-01T02:42:03.641Z,14.55
2018-05-01T02:43:03.595Z,14.54
2018-05-01T02:44:03.547Z,14.51
2018-05-01T02:45:03.503Z,14.52
2018-05-01T02:46:03.455Z,14.46
2018-05-01T02:47:03.411Z,14.51
2018-05-01T02:48:03.367Z,14.54
2018-05-01T02:49:03.323Z,14.54
2018-05-01T02:50:03.274Z,14.47
2018-05-01T02:51:03.233Z,14.57
2018-05-01T02:52:03.184Z,14.54
2018-05-01T02:53:03.139Z,14.55
2018-05-01T02:54:03.097Z,14.54
2018-05-01T02:55:03.046Z,14.54
2018-05-01T02:56:03.002Z,14.47
2018-05-01T02:57:02.957Z,14.52
2018-05-01T02:58:02.911Z,14.52
2018-05-01T02:59:02.865Z,14.51
2018-05-01T03:00:02.819Z,14.54
2018-05-01T03:01:02.775Z,14.52
2018-05-01T03:02:02.728Z,14.52
2018-05-01T03:03:02.682Z,14.47
2018-05-01T03:04:02.637Z,14.50
2018-05-01T03:05:02.592Z,14.54
2018-05-01T03:06:02.546Z,14.46
2018-05-01T03:07:02.501Z,14.52
2018-05-01T03:08:02.515Z,14.52
2018-05-01T03:09:02.414Z,14.50
2018-05-01T03:10:02.364Z,14.45
2018-05-01T03:11:02.318Z,14.45
2018-05-01T03:12:02.273Z,14.55
2018-05-01T03:13:02.228Z,14.58
2018-05-01T03:14:02.181Z,14.51
2018-05-01T03:15:02.137Z,14.50
2018-05-01T03:16:02.094Z,14.47
2018-05-01T03:17:02.046Z,14.45
2018-05-01T03:18:01.999Z,14.50
2018-05-01T03:19:01.954Z,14.42
2018-05-01T03:20:01.912Z,14.52
2018-05-01T03:21:01.863Z,14.39
2018-05-01T03:22:01.817Z,14.50
2018-05-01T03:23:01.771Z,14.40
2018-05-01T03:24:01.726Z,14.47
2018-05-01T03:25:01.681Z,14.42
2018-05-01T03:26:01.637Z,14.45
2018-05-01T03:27:01.590Z,14.42
2018-05-01T03:28:01.544Z,14.37
2018-05-01T03:29:01.508Z,14.45
2018-05-01T03:30:01.453Z,14.43
2018-05-01T03:31:01.407Z,14.42
2018-05-01T03:32:01.362Z,14.45
2018-05-01T03:33:01.320Z,14.45
2018-05-01T03:34:01.270Z,14.42
2018-05-01T03:35:01.237Z,14.43
2018-05-01T03:36:01.180Z,14.40
2018-05-01T03:37:01.134Z,14.42
2018-05-01T03:38:01.088Z,14.43
2018-05-01T03:39:01.078Z,14.45
2018-05-01T03:40:00.997Z,14.43
2018-05-01T03:41:00.951Z,14.51
2018-05-01T03:42:00.905Z,14.47
2018-05-01T03:43:00.860Z,14.51
2018-05-01T03:44:00.818Z,14.51
2018-05-01T03:45:00.769Z,14.52
2018-05-01T03:46:00.723Z,14.46
2018-05-01T03:47:00.677Z,14.46
2018-05-01T03:48:00.632Z,14.40
2018-05-01T03:49:00.589Z,14.43
2018-05-01T03:50:00.540Z,14.47
2018-05-01T03:51:00.495Z,14.42
2018-05-01T03:52:00.449Z,14.47
2018-05-01T03:53:00.405Z,14.46
2018-05-01T03:54:00.358Z,14.45
2018-05-01T03:55:00.313Z,14.45
2018-05-01T03:56:00.298Z,14.47
2018-05-01T03:57:00.225Z,14.40
2018-05-01T03:58:00.175Z,14.50
2018-05-01T03:59:00.130Z,14.45
2018-05-01T04:00:00.085Z,14.40
2018-05-01T04:01:00.046Z,14.46
2018-05-01T04:01:59.994Z,14.39
2018-05-01T04:02:59.955Z,14.40
2018-05-01T04:03:59.903Z,14.39
2018-05-01T04:04:59.883Z,14.43
2018-05-01T04:05:59.810Z,14.45
2018-05-01T04:06:59.765Z,14.46
2018-05-01T04:07:59.720Z,14.45
2018-05-01T04:08:59.676Z,14.36
2018-05-01T04:09:59.629Z,14.36
2018-05-01T04:10:59.583Z,14.32
2018-05-01T04:11:59.538Z,14.42
2018-05-01T04:12:59.493Z,14.36
2018-05-01T04:13:59.446Z,14.35
2018-05-01T04:14:59.402Z,14.29
2018-05-01T04:15:59.356Z,14.27
2018-05-01T04:16:59.311Z,14.36
2018-05-01T04:17:59.264Z,14.28
2018-05-01T04:18:59.219Z,14.25
2018-05-01T04:19:59.179Z,14.12
2018-05-01T04:20:59.128Z,14.14
2018-05-01T04:21:59.082Z,14.10
2018-05-01T04:22:59.049Z,14.09
2018-05-01T04:23:58.991Z,14.10
2018-05-01T04:24:58.948Z,14.06
2018-05-01T04:25:58.899Z,14.15
2018-05-01T04:26:58.854Z,14.12
2018-05-01T04:27:58.812Z,14.17
2018-05-01T04:28:58.764Z,14.15
2018-05-01T04:29:58.767Z,14.07
2018-05-01T04:30:58.672Z,14.14
2018-05-01T04:31:58.626Z,14.24
2018-05-01T04:32:58.581Z,14.25
2018-05-01T04:33:58.535Z,14.18
2018-05-01T04:34:58.491Z,14.27
2018-05-01T04:35:58.444Z,14.33
2018-05-01T04:36:58.399Z,14.36
2018-05-01T04:37:58.353Z,14.37
2018-05-01T04:38:58.314Z,14.43
2018-05-01T04:39:58.268Z,14.43
2018-05-01T04:40:58.267Z,14.42
2018-05-01T04:41:58.170Z,14.37
2018-05-01T04:42:58.126Z,14.40
2018-05-01T04:43:58.081Z,14.40
2018-05-01T04:44:58.036Z,14.45
2018-05-01T04:45:58.039Z,14.40
2018-05-01T04:46:57.944Z,14.42
2018-05-01T04:47:57.949Z,14.47
2018-05-01T04:48:57.854Z,14.52
2018-05-01T04:49:57.807Z,14.51
2018-05-01T04:50:57.762Z,14.47
2018-05-01T04:51:57.718Z,14.50
2018-05-01T04:52:57.671Z,14.50
2018-05-01T04:53:57.626Z,14.55
2018-05-01T04:54:57.580Z,14.54
2018-05-01T04:55:57.535Z,14.52
2018-05-01T04:56:57.489Z,14.42
2018-05-01T04:57:57.443Z,14.55
2018-05-01T04:58:57.398Z,14.57
2018-05-01T04:59:57.353Z,14.50
2018-05-01T05:00:57.308Z,14.52
2018-05-01T05:01:57.262Z,14.57
2018-05-01T05:02:57.229Z,14.57
2018-05-01T05:03:57.172Z,14.58
2018-05-01T05:04:57.126Z,14.69
2018-05-01T05:05:57.080Z,14.65
2018-05-01T05:06:57.036Z,14.75
2018-05-01T05:07:56.991Z,14.80
2018-05-01T05:08:56.947Z,14.83
2018-05-01T05:09:56.899Z,14.81
2018-05-01T05:10:56.861Z,14.89
2018-05-01T05:11:56.809Z,14.88
2018-05-01T05:12:56.864Z,14.99
2018-05-01T05:13:56.718Z,15.02
2018-05-01T05:14:56.673Z,14.95
2018-05-01T05:15:56.631Z,15.03
2018-05-01T05:16:56.583Z,15.11
2018-05-01T05:17:56.537Z,15.01
2018-05-01T05:18:56.492Z,15.03
2018-05-01T05:19:56.448Z,15.14
2018-05-01T05:20:56.402Z,15.02
2018-05-01T05:21:56.357Z,15.07
2018-05-01T05:22:56.312Z,15.07
2018-05-01T05:23:56.268Z,15.06
2018-05-01T05:24:56.222Z,15.09
2018-05-01T05:25:56.177Z,15.14
2018-05-01T05:26:56.134Z,15.10
2018-05-01T05:27:56.087Z,15.06
2018-05-01T05:28:56.042Z,15.09
2018-05-01T05:29:55.996Z,15.06
2018-05-01T05:30:55.952Z,15.16
2018-05-01T05:31:55.912Z,15.19
2018-05-01T05:32:55.861Z,15.20
2018-05-01T05:33:55.816Z,15.34
2018-05-01T05:34:55.772Z,15.50
2018-05-01T05:35:55.728Z,15.54
2018-05-01T05:36:55.687Z,15.71
2018-05-01T05:37:55.636Z,15.87
2018-05-01T05:38:55.592Z,15.94
2018-05-01T05:39:55.550Z,16.15
2018-05-01T05:40:55.502Z,16.20
2018-05-01T05:41:55.457Z,16.20
2018-05-01T05:42:55.413Z,16.24
2018-05-01T05:43:55.368Z,16.60
2018-05-01T05:44:55.324Z,17.06
2018-05-01T05:45:55.279Z,17.49
2018-05-01T05:46:55.234Z,17.97
2018-05-01T05:47:55.198Z,18.15
2018-05-01T05:48:55.238Z,18.15
2018-05-01T05:49:55.105Z,18.11
2018-05-01T05:50:55.059Z,18.17
2018-05-01T05:51:55.017Z,18.42
2018-05-01T05:52:54.972Z,18.60
2018-05-01T05:53:54.928Z,18.92
2018-05-01T05:54:54.885Z,19.33
2018-05-01T05:55:54.842Z,19.59
2018-05-01T05:56:54.800Z,20.03
2018-05-01T05:57:54.757Z,20.28
2018-05-01T05:58:54.714Z,20.48
2018-05-01T05:59:54.671Z,20.72
2018-05-01T06:00:54.631Z,20.92
2018-05-01T06:01:54.586Z,21.22
2018-05-01T06:02:54.548Z,21.68
2018-05-01T06:03:54.503Z,22.31
2018-05-01T06:04:54.461Z,22.76
2018-05-01T06:05:54.419Z,23.28
2018-05-01T06:06:54.379Z,23.60
2018-05-01T06:07:54.338Z,24.12
2018-05-01T06:08:54.298Z,24.67
2018-05-01T06:09:54.257Z,25.13
2018-05-01T06:10:54.218Z,25.33
2018-05-01T06:11:54.179Z,25.57
2018-05-01T06:12:54.140Z,25.99
2018-05-01T06:13:54.104Z,26.39
2018-05-01T06:14:54.062Z,26.54
2018-05-01T06:15:54.025Z,26.80
2018-05-01T06:16:53.988Z,26.97
2018-05-01T06:17:53.951Z,27.27
2018-05-01T06:18:53.915Z,27.47
2018-05-01T06:19:53.876Z,27.67
2018-05-01T06:20:53.840Z,27.94
2018-05-01T06:21:53.908Z,28.09
2018-05-01T06:22:53.766Z,28.21
2018-05-01T06:23:53.780Z,28.25
2018-05-01T06:24:53.695Z,28.44
2018-05-01T06:25:53.659Z,28.61
2018-05-01T06:26:53.624Z,28.61
2018-05-01T06:27:53.591Z,28.61
2018-05-01T06:28:53.554Z,28.55
2018-05-01T06:29:53.543Z,28.64
2018-05-01T06:30:53.482Z,28.81
2018-05-01T06:31:53.448Z,28.78
2018-05-01T06:32:53.413Z,28.77
2018-05-01T06:33:53.378Z,28.89
2018-05-01T06:34:53.343Z,28.98
2018-05-01T06:35:53.309Z,28.95
2018-05-01T06:36:53.280Z,29.08
2018-05-01T06:37:53.239Z,29.26
2018-05-01T06:38:53.205Z,29.61
2018-05-01T06:39:53.173Z,29.86
2018-05-01T06:40:53.136Z,30.08
2018-05-01T06:41:53.102Z,30.15
2018-05-01T06:42:53.068Z,30.24
2018-05-01T06:43:53.041Z,30.31
2018-05-01T06:44:53.000Z,30.47
2018-05-01T06:45:52.966Z,30.49
2018-05-01T06:46:52.932Z,30.34
2018-05-01T06:47:52.899Z,30.34
2018-05-01T06:48:52.865Z,30.26
2018-05-01T06:49:52.831Z,30.16
2018-05-01T06:50:52.798Z,30.22
2018-05-01T06:51:52.765Z,30.16
2018-05-01T06:52:52.733Z,30.27
2018-05-01T06:53:52.697Z,30.57
2018-05-01T06:54:52.664Z,30.72
2018-05-01T06:55:52.631Z,30.77
2018-05-01T06:56:52.600Z,30.91
2018-05-01T06:57:52.580Z,30.72
2018-05-01T06:58:52.531Z,30.67
2018-05-01T06:59:52.501Z,30.55
2018-05-01T07:00:52.464Z,30.70
2018-05-01T07:01:52.431Z,30.79
2018-05-01T07:02:52.398Z,30.67
2018-05-01T07:03:52.364Z,30.61
2018-05-01T07:04:52.332Z,30.62
2018-05-01T07:05:52.298Z,30.69
2018-05-01T07:06:52.280Z,30.61
2018-05-01T07:07:52.232Z,30.65
2018-05-01T07:08:52.200Z,31.06
2018-05-01T07:09:52.166Z,31.54
2018-05-01T07:10:52.133Z,32.10
2018-05-01T07:11:52.100Z,32.63
2018-05-01T07:12:52.068Z,33.06
2018-05-01T07:13:52.034Z,33.47
2018-05-01T07:14:52.002Z,33.82
2018-05-01T07:15:52.062Z,34.08
2018-05-01T07:16:51.990Z,34.47
2018-05-01T07:17:51.905Z,35.00
2018-05-01T07:18:51.887Z,35.43
2018-05-01T07:19:51.843Z,35.33
2018-05-01T07:20:51.814Z,35.19
2018-05-01T07:21:51.780Z,34.89
2018-05-01T07:22:51.749Z,34.47
2018-05-01T07:23:51.718Z,34.47
2018-05-01T07:24:51.687Z,34.50
2018-05-01T07:25:51.705Z,34.59
2018-05-01T07:26:51.624Z,34.52
2018-05-01T07:27:51.593Z,34.54
2018-05-01T07:28:51.564Z,34.47
2018-05-01T07:29:51.531Z,34.37
2018-05-01T07:30:51.500Z,34.02
2018-05-01T07:31:51.519Z,33.97
2018-05-01T07:32:51.438Z,33.84
2018-05-01T07:33:51.406Z,34.00
2018-05-01T07:34:51.376Z,33.98
2018-05-01T07:35:51.344Z,34.05
2018-05-01T07:36:51.314Z,34.10
2018-05-01T07:37:51.282Z,34.10
2018-05-01T07:38:51.251Z,34.31
2018-05-01T07:39:51.221Z,34.44
2018-05-01T07:40:51.189Z,34.50
2018-05-01T07:41:51.180Z,34.35
2018-05-01T07:42:51.127Z,34.00
2018-05-01T07:43:51.096Z,33.71
2018-05-01T07:44:51.065Z,33.07
2018-05-01T07:45:51.033Z,32.51
2018-05-01T07:46:51.003Z,32.03
2018-05-01T07:47:50.970Z,31.89
2018-05-01T07:48:50.944Z,31.54
2018-05-01T07:49:50.906Z,31.25
2018-05-01T07:50:50.874Z,31.13
2018-05-01T07:51:50.842Z,31.10
2018-05-01T07:52:50.809Z,30.91
2018-05-01T07:53:50.777Z,30.79
2018-05-01T07:54:50.745Z,30.62
2018-05-01T07:55:50.712Z,30.27
2018-05-01T07:56:50.682Z,30.10
2018-05-01T07:57:50.645Z,29.83
2018-05-01T07:58:50.613Z,29.65
2018-05-01T07:59:50.579Z,29.63
2018-05-01T08:00:50.546Z,29.43
2018-05-01T08:01:50.512Z,29.14
2018-05-01T08:02:50.478Z,29.23
2018-05-01T08:03:50.444Z,29.05
2018-05-01T08:04:50.411Z,28.92
2018-05-01T08:05:50.376Z,28.68
2018-05-01T08:06:50.343Z,28.44
2018-05-01T08:07:50.308Z,28.09
2018-05-01T08:08:50.274Z,27.66
2018-05-01T08:09:50.239Z,27.18
2018-05-01T08:10:50.204Z,26.69
2018-05-01T08:11:50.753Z,26.15
2018-05-01T08:12:50.134Z,25.50
2018-05-01T08:13:50.102Z,25.20
2018-05-01T08:14:50.062Z,25.24
2018-05-01T08:15:50.027Z,25.08
2018-05-01T08:16:49.990Z,24.95
2018-05-01T08:17:50.053Z,24.49
2018-05-01T08:18:49.916Z,24.28
2018-05-01T08:19:49.884Z,24.05
2018-05-01T08:20:49.843Z,23.80
2018-05-01T08:21:49.803Z,23.61
2018-05-01T08:22:49.817Z,23.58
2018-05-01T08:23:49.727Z,23.58
2018-05-01T08:24:49.689Z,23.40
2018-05-01T08:25:49.650Z,23.27
2018-05-01T08:26:49.611Z,22.98
2018-05-01T08:27:49.573Z,22.68
2018-05-01T08:28:49.533Z,22.60
2018-05-01T08:29:49.494Z,22.46
2018-05-01T08:30:49.454Z,22.61
2018-05-01T08:31:49.414Z,22.79
2018-05-01T08:32:49.377Z,22.73
2018-05-01T08:33:49.336Z,22.82
2018-05-01T08:34:49.295Z,23.01
2018-05-01T08:35:49.256Z,23.22
2018-05-01T08:36:49.216Z,23.53
2018-05-01T08:37:49.175Z,23.61
2018-05-01T08:38:49.136Z,23.83
2018-05-01T08:39:49.097Z,23.79
2018-05-01T08:40:49.057Z,23.72
2018-05-01T08:41:49.017Z,23.73
2018-05-01T08:42:48.979Z,23.53
2018-05-01T08:43:48.938Z,23.51
2018-05-01T08:44:48.898Z,23.47
2018-05-01T08:45:48.858Z,23.51
2018-05-01T08:46:48.818Z,23.28
2018-05-01T08:47:48.779Z,22.94
2018-05-01T08:48:48.739Z,22.73
2018-05-01T08:49:48.698Z,22.46
2018-05-01T08:50:48.659Z,22.28
2018-05-01T08:51:48.619Z,22.09
2018-05-01T08:52:48.579Z,22.02
2018-05-01T08:53:48.538Z,21.92
2018-05-01T08:54:48.512Z,22.14
2018-05-01T08:55:48.459Z,22.45
2018-05-01T08:56:48.417Z,22.94
2018-05-01T08:57:48.376Z,23.27
2018-05-01T08:58:48.341Z,23.55
2018-05-01T08:59:48.296Z,23.98
2018-05-01T09:00:48.257Z,24.88
2018-05-01T09:01:48.217Z,25.67
2018-05-01T09:02:48.179Z,26.48
2018-05-01T09:03:48.141Z,26.97
2018-05-01T09:04:48.104Z,27.66
2018-05-01T09:05:48.066Z,28.11
2018-05-01T09:06:48.030Z,28.59
2018-05-01T09:07:47.994Z,28.88
2018-05-01T09:08:47.958Z,29.30
2018-05-01T09:09:47.922Z,29.51
2018-05-01T09:10:47.889Z,29.92
2018-05-01T09:11:47.854Z,30.17
2018-05-01T09:12:47.821Z,30.00
2018-05-01T09:13:47.785Z,29.71
2018-05-01T09:14:47.751Z,29.45
2018-05-01T09:15:47.718Z,29.57
2018-05-01T09:16:47.684Z,29.70
2018-05-01T09:17:47.759Z,29.82
2018-05-01T09:18:47.617Z,30.02
2018-05-01T09:19:47.592Z,30.47
2018-05-01T09:20:47.551Z,30.97
2018-05-01T09:21:47.517Z,31.39
2018-05-01T09:22:47.485Z,31.76
2018-05-01T09:23:47.452Z,32.13
2018-05-01T09:24:47.421Z,32.19
2018-05-01T09:25:47.387Z,32.23
2018-05-01T09:26:47.355Z,31.86
2018-05-01T09:27:47.330Z,31.66
2018-05-01T09:28:47.294Z,31.57
2018-05-01T09:29:47.264Z,31.51
2018-05-01T09:30:47.229Z,31.39
2018-05-01T09:31:47.196Z,31.28
2018-05-01T09:32:47.165Z,31.35
2018-05-01T09:33:47.131Z,31.69
2018-05-01T09:34:47.100Z,31.89
2018-05-01T09:35:47.069Z,32.22
2018-05-01T09:36:47.037Z,32.41
2018-05-01T09:37:47.005Z,32.37
2018-05-01T09:38:46.973Z,32.33
2018-05-01T09:39:46.942Z,32.32
2018-05-01T09:40:46.911Z,32.43
2018-05-01T09:41:46.886Z,32.55
2018-05-01T09:42:46.848Z,32.47
2018-05-01T09:43:46.817Z,32.29
2018-05-01T09:44:46.785Z,31.80
2018-05-01T09:45:46.762Z,30.83
2018-05-01T09:46:46.722Z,30.07
2018-05-01T09:47:46.690Z,28.86
2018-05-01T09:48:46.660Z,27.88
2018-05-01T09:49:46.625Z,26.87
2018-05-01T09:50:46.592Z,26.18
2018-05-01T09:51:46.577Z,25.50
2018-05-01T09:52:46.524Z,24.90
2018-05-01T09:53:46.489Z,24.39
2018-05-01T09:54:46.454Z,23.94
2018-05-01T09:55:46.420Z,23.40
2018-05-01T09:56:46.385Z,23.12
2018-05-01T09:57:46.348Z,22.85
2018-05-01T09:58:46.312Z,22.54
2018-05-01T09:59:46.275Z,22.24
2018-05-01T10:00:46.237Z,21.98
2018-05-01T10:01:46.209Z,21.77
2018-05-01T10:02:46.161Z,21.40
2018-05-01T10:03:46.128Z,21.29
2018-05-01T10:04:46.085Z,21.34
2018-05-01T10:05:46.045Z,21.29
2018-05-01T10:06:46.007Z,21.28
2018-05-01T10:07:45.967Z,21.24
2018-05-01T10:08:45.929Z,21.29
2018-05-01T10:09:45.887Z,21.32
2018-05-01T10:10:45.849Z,21.16
2018-05-01T10:11:45.808Z,21.17
2018-05-01T10:12:45.774Z,21.03
2018-05-01T10:13:45.728Z,20.99
2018-05-01T10:14:45.690Z,20.92
2018-05-01T10:15:45.647Z,20.82
2018-05-01T10:16:45.606Z,20.80
2018-05-01T10:17:45.565Z,20.72
2018-05-01T10:18:45.525Z,20.76
2018-05-01T10:19:45.488Z,20.77
2018-05-01T10:20:45.444Z,20.73
2018-05-01T10:21:45.405Z,20.64
2018-05-01T10:22:45.361Z,20.58
2018-05-01T10:23:45.320Z,20.55
2018-05-01T10:24:45.280Z,20.48
2018-05-01T10:25:45.238Z,20.41
2018-05-01T10:26:45.197Z,20.38
2018-05-01T10:27:45.156Z,20.32
2018-05-01T10:28:45.219Z,20.32
2018-05-01T10:29:45.172Z,20.28
2018-05-01T10:30:45.033Z,20.38
2018-05-01T10:31:44.991Z,20.38
2018-05-01T10:32:44.952Z,20.36
2018-05-01T10:33:44.907Z,20.32
2018-05-01T10:34:44.866Z,20.28
2018-05-01T10:35:44.824Z,20.33
2018-05-01T10:36:44.833Z,20.18
2018-05-01T10:37:44.740Z,20.05
2018-05-01T10:38:44.736Z,20.06
2018-05-01T10:39:44.658Z,20.16
2018-05-01T10:40:44.616Z,20.16
2018-05-01T10:41:44.574Z,20.10
2018-05-01T10:42:44.532Z,20.18
2018-05-01T10:43:44.490Z,20.17
2018-05-01T10:44:44.502Z,20.16
2018-05-01T10:45:44.450Z,20.18
2018-05-01T10:46:44.365Z,20.28
2018-05-01T10:47:44.324Z,20.18
2018-05-01T10:48:44.282Z,20.18
2018-05-01T10:49:44.240Z,20.17
2018-05-01T10:50:44.198Z,20.14
2018-05-01T10:51:44.157Z,20.21
2018-05-01T10:52:44.116Z,20.23
2018-05-01T10:53:44.073Z,20.17
2018-05-01T10:54:44.056Z,20.18
2018-05-01T10:55:43.990Z,20.17
2018-05-01T10:56:43.947Z,20.14
2018-05-01T10:57:43.905Z,20.18
2018-05-01T10:58:43.867Z,20.11
2018-05-01T10:59:43.822Z,20.11
2018-05-01T11:00:43.781Z,20.17
2018-05-01T11:01:43.738Z,20.21
2018-05-01T11:02:43.697Z,20.16
2018-05-01T11:03:43.655Z,20.10
2018-05-01T11:04:43.617Z,20.14
2018-05-01T11:05:43.571Z,20.14
2018-05-01T11:06:43.529Z,20.10
2018-05-01T11:07:43.489Z,20.10
2018-05-01T11:08:43.446Z,20.02
2018-05-01T11:09:43.406Z,19.96
2018-05-01T11:10:43.361Z,19.99
2018-05-01T11:11:43.320Z,20.05
2018-05-01T11:12:43.278Z,19.94
2018-05-01T11:13:43.286Z,20.06
2018-05-01T11:14:43.194Z,20.14
2018-05-01T11:15:43.152Z,20.26
2018-05-01T11:16:43.111Z,20.31
2018-05-01T11:17:43.068Z,20.28
2018-05-01T11:18:43.029Z,20.33
2018-05-01T11:19:42.985Z,20.35
2018-05-01T11:20:42.947Z,20.35
2018-05-01T11:21:42.902Z,20.23
2018-05-01T11:22:42.862Z,20.17
2018-05-01T11:23:42.823Z,20.05
2018-05-01T11:24:42.792Z,19.99
2018-05-01T11:25:42.735Z,19.81
2018-05-01T11:26:42.695Z,19.76
2018-05-01T11:27:42.650Z,19.81
2018-05-01T11:28:42.611Z,19.76
2018-05-01T11:29:42.566Z,19.76
2018-05-01T11:30:42.524Z,19.74
2018-05-01T11:31:42.482Z,19.81
2018-05-01T11:32:42.440Z,19.86
2018-05-01T11:33:42.475Z,19.83
2018-05-01T11:34:42.355Z,19.87
2018-05-01T11:35:42.313Z,19.95
2018-05-01T11:36:42.272Z,19.96
2018-05-01T11:37:42.229Z,19.94
2018-05-01T11:38:42.187Z,19.98
2018-05-01T11:39:42.145Z,20.01
2018-05-01T11:40:42.104Z,20.16
2018-05-01T11:41:42.061Z,20.11
2018-05-01T11:42:42.019Z,20.14
2018-05-01T11:43:41.977Z,20.17
2018-05-01T11:44:41.936Z,20.21
2018-05-01T11:45:41.893Z,20.33
2018-05-01T11:46:41.851Z,20.31
2018-05-01T11:47:41.809Z,20.23
2018-05-01T11:48:41.769Z,20.16
2018-05-01T11:49:41.725Z,20.10
2018-05-01T11:50:41.684Z,19.96
2018-05-01T11:51:41.641Z,19.99
2018-05-01T11:52:41.600Z,20.01
2018-05-01T11:53:41.648Z,20.01
2018-05-01T11:54:41.516Z,20.11
2018-05-01T11:55:41.474Z,20.16
2018-05-01T11:56:41.433Z,20.18
2018-05-01T11:57:41.389Z,20.26
2018-05-01T11:58:41.351Z,20.23
2018-05-01T11:59:41.306Z,20.23
2018-05-01T12:00:41.264Z,20.29
2018-05-01T12:01:41.222Z,20.11
2018-05-01T12:02:41.267Z,20.01
2018-05-01T12:03:41.138Z,20.03
2018-05-01T12:04:41.097Z,20.06
2018-05-01T12:05:41.054Z,20.21
2018-05-01T12:06:41.014Z,20.17
2018-05-01T12:07:40.971Z,20.17
2018-05-01T12:08:40.928Z,20.18
2018-05-01T12:09:40.886Z,20.31
2018-05-01T12:10:40.923Z,20.29
2018-05-01T12:11:40.803Z,20.26
2018-05-01T12:12:40.761Z,20.29
2018-05-01T12:13:40.723Z,20.21
2018-05-01T12:14:40.679Z,20.18
2018-05-01T12:15:40.635Z,19.99
2018-05-01T12:16:40.593Z,19.88
2018-05-01T12:17:40.551Z,19.95
2018-05-01T12:18:40.570Z,19.91
2018-05-01T12:19:40.467Z,19.84
2018-05-01T12:20:40.430Z,20.01
2018-05-01T12:21:40.382Z,20.16
2018-05-01T12:22:40.341Z,20.16
2018-05-01T12:23:40.329Z,20.17
2018-05-01T12:24:40.260Z,20.08
2018-05-01T12:25:40.218Z,20.01
2018-05-01T12:26:40.179Z,19.98
2018-05-01T12:27:40.131Z,19.99
2018-05-01T12:28:40.089Z,19.99
2018-05-01T12:29:40.046Z,19.96
2018-05-01T12:30:40.011Z,20.11
2018-05-01T12:31:39.963Z,20.08
2018-05-01T12:32:39.923Z,20.11
2018-05-01T12:33:39.878Z,20.08
2018-05-01T12:34:39.838Z,20.05
2018-05-01T12:35:39.794Z,19.98
2018-05-01T12:36:39.888Z,19.83
2018-05-01T12:37:39.710Z,19.96
2018-05-01T12:38:39.667Z,19.96
2018-05-01T12:39:39.626Z,19.95
2018-05-01T12:40:39.584Z,19.94
2018-05-01T12:41:39.541Z,19.92
2018-05-01T12:42:39.500Z,19.83
2018-05-01T12:43:39.458Z,19.81
2018-05-01T12:44:39.416Z,19.84
2018-05-01T12:45:39.373Z,19.86
2018-05-01T12:46:39.334Z,19.83
2018-05-01T12:47:39.290Z,19.73
2018-05-01T12:48:39.249Z,19.56
2018-05-01T12:49:39.204Z,19.61
2018-05-01T12:50:39.165Z,19.46
2018-05-01T12:51:39.119Z,19.40